sensor_id;sensor_type;location;lat;lon;timestamp;P1;P2;P0
44871;PMS7003;30602;51.060;17.226;2023-06-22T00:03:50;40;34;24
44871;PMS7003;30602;51.060;17.226;2023-06-22T00:07:28;35;31;22
44871;PMS7003;30602;51.060;17.226;2023-06-22T00:11:44;37;33;23
44871;PMS7003;30602;51.060;17.226;2023-06-22T00:15:14;39;33;24
44871;PMS7003;30602;51.060;17.226;2023-06-22T00:19:09;42;35;24
44871;PMS7003;30602;51.060;17.226;2023-06-22T00:22:32;37;31;24
44871;PMS7003;30602;51.060;17.226;2023-06-22T00:26:32;37;34;24
44871;PMS7003;30602;51.060;17.226;2023-06-22T00:30:44;41;35;24
44871;PMS7003;30602;51.060;17.226;2023-06-22T00:34:51;38;33;22
44871;PMS7003;30602;51.060;17.226;2023-06-22T00:38:10;36;33;23
44871;PMS7003;30602;51.060;17.226;2023-06-22T00:42:26;41;34;25
44871;PMS7003;30602;51.060;17.226;2023-06-22T00:46:25;39;32;24
44871;PMS7003;30602;51.060;17.226;2023-06-22T00:49:51;39;34;23
44871;PMS7003;30602;51.060;17.226;2023-06-22T00:57:55;39;33;24
44871;PMS7003;30602;51.060;17.226;2023-06-22T01:01:31;45;35;25
44871;PMS7003;30602;51.060;17.226;2023-06-22T01:05:20;43;36;24
44871;PMS7003;30602;51.060;17.226;2023-06-22T01:13:06;44;37;26
44871;PMS7003;30602;51.060;17.226;2023-06-22T01:17:18;44;37;25
44871;PMS7003;30602;51.060;17.226;2023-06-22T01:21:07;39;34;24
44871;PMS7003;30602;51.060;17.226;2023-06-22T01:25:13;43;36;25
44871;PMS7003;30602;51.060;17.226;2023-06-22T01:28:49;42;33;24
44871;PMS7003;30602;51.060;17.226;2023-06-22T01:32:32;39;34;24
44871;PMS7003;30602;51.060;17.226;2023-06-22T01:35:58;43;36;26
44871;PMS7003;30602;51.060;17.226;2023-06-22T01:39:31;42;36;26
44871;PMS7003;30602;51.060;17.226;2023-06-22T01:47:01;38;33;23
44871;PMS7003;30602;51.060;17.226;2023-06-22T01:50:47;47;39;26
44871;PMS7003;30602;51.060;17.226;2023-06-22T01:54:41;41;34;25
44871;PMS7003;30602;51.060;17.226;2023-06-22T01:58:36;41;36;25
44871;PMS7003;30602;51.060;17.226;2023-06-22T02:06:35;39;35;26
44871;PMS7003;30602;51.060;17.226;2023-06-22T02:10:37;42;35;25
44871;PMS7003;30602;51.060;17.226;2023-06-22T02:14:15;39;33;24
44871;PMS7003;30602;51.060;17.226;2023-06-22T02:18:00;45;37;26
44871;PMS7003;30602;51.060;17.226;2023-06-22T02:21:48;39;35;25
44871;PMS7003;30602;51.060;17.226;2023-06-22T02:25:14;43;36;26
44871;PMS7003;30602;51.060;17.226;2023-06-22T02:33:06;45;37;26
44871;PMS7003;30602;51.060;17.226;2023-06-22T02:36:49;44;37;26
44871;PMS7003;30602;51.060;17.226;2023-06-22T02:40:18;44;38;26
44871;PMS7003;30602;51.060;17.226;2023-06-22T02:43:39;45;37;26
44871;PMS7003;30602;51.060;17.226;2023-06-22T02:47:14;47;39;27
44871;PMS7003;30602;51.060;17.226;2023-06-22T02:51:09;44;36;26
44871;PMS7003;30602;51.060;17.226;2023-06-22T02:54:33;39;34;25
44871;PMS7003;30602;51.060;17.226;2023-06-22T02:58:01;42;36;25
44871;PMS7003;30602;51.060;17.226;2023-06-22T03:01:55;42;36;25
44871;PMS7003;30602;51.060;17.226;2023-06-22T03:05:39;43;36;25
44871;PMS7003;30602;51.060;17.226;2023-06-22T03:09:13;42;36;25
44871;PMS7003;30602;51.060;17.226;2023-06-22T03:13:23;40;36;26
44871;PMS7003;30602;51.060;17.226;2023-06-22T03:17:11;47;40;26
44871;PMS7003;30602;51.060;17.226;2023-06-22T03:20:40;44;36;25
44871;PMS7003;30602;51.060;17.226;2023-06-22T03:24:19;47;39;26
44871;PMS7003;30602;51.060;17.226;2023-06-22T03:27:59;42;35;24
44871;PMS7003;30602;51.060;17.226;2023-06-22T03:31:48;41;34;24
44871;PMS7003;30602;51.060;17.226;2023-06-22T03:35:44;43;37;26
44871;PMS7003;30602;51.060;17.226;2023-06-22T03:39:10;38;33;24
44871;PMS7003;30602;51.060;17.226;2023-06-22T03:43:05;37;32;23
44871;PMS7003;30602;51.060;17.226;2023-06-22T03:46:49;37;33;24
44871;PMS7003;30602;51.060;17.226;2023-06-22T03:51:00;42;33;24
44871;PMS7003;30602;51.060;17.226;2023-06-22T03:54:46;43;35;25
44871;PMS7003;30602;51.060;17.226;2023-06-22T03:58:33;42;37;26
44871;PMS7003;30602;51.060;17.226;2023-06-22T04:02:12;47;37;25
44871;PMS7003;30602;51.060;17.226;2023-06-22T04:06:33;44;35;25
44871;PMS7003;30602;51.060;17.226;2023-06-22T04:10:24;42;36;24
44871;PMS7003;30602;51.060;17.226;2023-06-22T04:14:18;42;34;25
44871;PMS7003;30602;51.060;17.226;2023-06-22T04:18:04;44;36;25
44871;PMS7003;30602;51.060;17.226;2023-06-22T04:21:55;43;37;25
44871;PMS7003;30602;51.060;17.226;2023-06-22T04:26:05;42;35;25
44871;PMS7003;30602;51.060;17.226;2023-06-22T04:29:58;41;35;24
44871;PMS7003;30602;51.060;17.226;2023-06-22T04:33:23;44;36;24
44871;PMS7003;30602;51.060;17.226;2023-06-22T04:37:07;46;38;26
44871;PMS7003;30602;51.060;17.226;2023-06-22T04:41:21;44;37;25
44871;PMS7003;30602;51.060;17.226;2023-06-22T04:44:47;42;36;26
44871;PMS7003;30602;51.060;17.226;2023-06-22T04:49:09;45;35;26
44871;PMS7003;30602;51.060;17.226;2023-06-22T04:52:45;39;34;25
44871;PMS7003;30602;51.060;17.226;2023-06-22T04:57:34;45;38;26
44871;PMS7003;30602;51.060;17.226;2023-06-22T05:01:09;45;39;26
44871;PMS7003;30602;51.060;17.226;2023-06-22T05:04:57;47;40;26
44871;PMS7003;30602;51.060;17.226;2023-06-22T05:08:35;48;40;27
44871;PMS7003;30602;51.060;17.226;2023-06-22T05:12:40;47;40;27
44871;PMS7003;30602;51.060;17.226;2023-06-22T05:17:18;48;40;27
44871;PMS7003;30602;51.060;17.226;2023-06-22T05:21:05;55;42;27
44871;PMS7003;30602;51.060;17.226;2023-06-22T05:24:50;46;40;27
44871;PMS7003;30602;51.060;17.226;2023-06-22T05:28:26;47;39;27
44871;PMS7003;30602;51.060;17.226;2023-06-22T05:32:18;44;37;26
44871;PMS7003;30602;51.060;17.226;2023-06-22T05:35:42;44;38;27
44871;PMS7003;30602;51.060;17.226;2023-06-22T05:39:39;43;34;25
44871;PMS7003;30602;51.060;17.226;2023-06-22T05:43:20;38;32;23
44871;PMS7003;30602;51.060;17.226;2023-06-22T05:47:17;39;34;24
44871;PMS7003;30602;51.060;17.226;2023-06-22T05:51:17;37;31;22
44871;PMS7003;30602;51.060;17.226;2023-06-22T05:55:16;27;26;20
44871;PMS7003;30602;51.060;17.226;2023-06-22T05:58:42;29;27;20
44871;PMS7003;30602;51.060;17.226;2023-06-22T06:02:38;31;28;21
44871;PMS7003;30602;51.060;17.226;2023-06-22T06:06:47;31;29;21
44871;PMS7003;30602;51.060;17.226;2023-06-22T06:11:01;29;28;20
44871;PMS7003;30602;51.060;17.226;2023-06-22T06:14:54;31;29;22
44871;PMS7003;30602;51.060;17.226;2023-06-22T06:18:54;37;32;23
44871;PMS7003;30602;51.060;17.226;2023-06-22T06:22:37;33;31;23
44871;PMS7003;30602;51.060;17.226;2023-06-22T06:26:27;34;30;21
44871;PMS7003;30602;51.060;17.226;2023-06-22T06:30:37;31;29;22
44871;PMS7003;30602;51.060;17.226;2023-06-22T06:34:37;33;29;21
44871;PMS7003;30602;51.060;17.226;2023-06-22T06:38:55;35;31;22
44871;PMS7003;30602;51.060;17.226;2023-06-22T06:43:22;30;28;20
44871;PMS7003;30602;51.060;17.226;2023-06-22T06:46:45;32;30;21
44871;PMS7003;30602;51.060;17.226;2023-06-22T06:50:25;32;30;21
44871;PMS7003;30602;51.060;17.226;2023-06-22T06:54:54;29;26;19
44871;PMS7003;30602;51.060;17.226;2023-06-22T06:59:07;36;30;20
44871;PMS7003;30602;51.060;17.226;2023-06-22T07:02:50;33;30;21
44871;PMS7003;30602;51.060;17.226;2023-06-22T07:06:48;30;28;21
44871;PMS7003;30602;51.060;17.226;2023-06-22T07:10:44;30;28;20
44871;PMS7003;30602;51.060;17.226;2023-06-22T07:14:46;26;24;18
44871;PMS7003;30602;51.060;17.226;2023-06-22T07:18:33;30;28;20
44871;PMS7003;30602;51.060;17.226;2023-06-22T07:22:12;28;27;20
44871;PMS7003;30602;51.060;17.226;2023-06-22T07:25:56;24;24;18
44871;PMS7003;30602;51.060;17.226;2023-06-22T07:29:43;28;27;21
44871;PMS7003;30602;51.060;17.226;2023-06-22T07:33:38;26;26;19
44871;PMS7003;30602;51.060;17.226;2023-06-22T07:37:35;28;26;18
44871;PMS7003;30602;51.060;17.226;2023-06-22T07:41:30;26;25;19
44871;PMS7003;30602;51.060;17.226;2023-06-22T07:45:13;27;27;20
44871;PMS7003;30602;51.060;17.226;2023-06-22T07:48:57;24;24;19
44871;PMS7003;30602;51.060;17.226;2023-06-22T07:52:23;25;22;18
44871;PMS7003;30602;51.060;17.226;2023-06-22T07:57:12;27;25;18
44871;PMS7003;30602;51.060;17.226;2023-06-22T08:00:55;27;24;18
44871;PMS7003;30602;51.060;17.226;2023-06-22T08:05:05;25;24;20
44871;PMS7003;30602;51.060;17.226;2023-06-22T08:08:46;24;22;17
44871;PMS7003;30602;51.060;17.226;2023-06-22T08:12:28;26;24;19
44871;PMS7003;30602;51.060;17.226;2023-06-22T08:16:21;27;24;18
44871;PMS7003;30602;51.060;17.226;2023-06-22T08:20:35;22;22;18
44871;PMS7003;30602;51.060;17.226;2023-06-22T08:24:20;28;26;20
44871;PMS7003;30602;51.060;17.226;2023-06-22T08:28:19;23;23;18
44871;PMS7003;30602;51.060;17.226;2023-06-22T08:32:17;28;24;18
44871;PMS7003;30602;51.060;17.226;2023-06-22T08:35:58;27;24;18
44871;PMS7003;30602;51.060;17.226;2023-06-22T08:40:11;29;26;19
44871;PMS7003;30602;51.060;17.226;2023-06-22T08:43:55;25;22;17
44871;PMS7003;30602;51.060;17.226;2023-06-22T08:47:39;26;25;19
44871;PMS7003;30602;51.060;17.226;2023-06-22T08:51:19;24;24;18
44871;PMS7003;30602;51.060;17.226;2023-06-22T08:55:39;23;22;17
44871;PMS7003;30602;51.060;17.226;2023-06-22T08:59:55;24;23;19
44871;PMS7003;30602;51.060;17.226;2023-06-22T09:03:53;24;24;17
44871;PMS7003;30602;51.060;17.226;2023-06-22T09:07:43;26;24;18
44871;PMS7003;30602;51.060;17.226;2023-06-22T09:11:37;26;26;20
44871;PMS7003;30602;51.060;17.226;2023-06-22T09:15:33;24;24;19
44871;PMS7003;30602;51.060;17.226;2023-06-22T09:19:31;24;23;18
44871;PMS7003;30602;51.060;17.226;2023-06-22T09:23:22;22;21;17
44871;PMS7003;30602;51.060;17.226;2023-06-22T09:26:40;21;20;17
44871;PMS7003;30602;51.060;17.226;2023-06-22T09:29:59;26;22;17
44871;PMS7003;30602;51.060;17.226;2023-06-22T09:33:41;21;20;17
44871;PMS7003;30602;51.060;17.226;2023-06-22T09:37:56;21;20;17
44871;PMS7003;30602;51.060;17.226;2023-06-22T09:41:36;22;20;15
44871;PMS7003;30602;51.060;17.226;2023-06-22T09:45:52;19;19;16
44871;PMS7003;30602;51.060;17.226;2023-06-22T09:50:22;19;18;14
44871;PMS7003;30602;51.060;17.226;2023-06-22T09:53:56;21;19;15
44871;PMS7003;30602;51.060;17.226;2023-06-22T10:01:35;19;18;15
44871;PMS7003;30602;51.060;17.226;2023-06-22T10:05:11;20;18;15
44871;PMS7003;30602;51.060;17.226;2023-06-22T10:16:47;19;19;15
44871;PMS7003;30602;51.060;17.226;2023-06-22T10:20:27;17;16;14
44871;PMS7003;30602;51.060;17.226;2023-06-22T10:24:12;21;20;16
44871;PMS7003;30602;51.060;17.226;2023-06-22T10:27:55;17;17;14
44871;PMS7003;30602;51.060;17.226;2023-06-22T10:32:18;21;20;17
44871;PMS7003;30602;51.060;17.226;2023-06-22T10:36:04;18;17;14
44871;PMS7003;30602;51.060;17.226;2023-06-22T10:39:36;16;16;14
44871;PMS7003;30602;51.060;17.226;2023-06-22T10:43:09;20;18;15
44871;PMS7003;30602;51.060;17.226;2023-06-22T10:51:05;16;15;12
44871;PMS7003;30602;51.060;17.226;2023-06-22T10:54:50;16;15;12
44871;PMS7003;30602;51.060;17.226;2023-06-22T10:58:15;13;13;11
44871;PMS7003;30602;51.060;17.226;2023-06-22T11:02:31;14;14;12
44871;PMS7003;30602;51.060;17.226;2023-06-22T11:06:25;20;16;12
44871;PMS7003;30602;51.060;17.226;2023-06-22T11:10:00;17;13;11
44871;PMS7003;30602;51.060;17.226;2023-06-22T11:17:19;13;13;11
44871;PMS7003;30602;51.060;17.226;2023-06-22T11:21:24;17;17;14
44871;PMS7003;30602;51.060;17.226;2023-06-22T11:24:59;18;17;14
44871;PMS7003;30602;51.060;17.226;2023-06-22T11:29:07;15;14;12
44871;PMS7003;30602;51.060;17.226;2023-06-22T11:33:01;19;17;13
44871;PMS7003;30602;51.060;17.226;2023-06-22T11:40:46;15;15;13
44871;PMS7003;30602;51.060;17.226;2023-06-22T11:44:28;19;17;14
44871;PMS7003;30602;51.060;17.226;2023-06-22T11:47:52;20;19;15
44871;PMS7003;30602;51.060;17.226;2023-06-22T11:51:28;18;18;14
44871;PMS7003;30602;51.060;17.226;2023-06-22T11:55:13;16;16;13
44871;PMS7003;30602;51.060;17.226;2023-06-22T11:59:19;16;16;14
44871;PMS7003;30602;51.060;17.226;2023-06-22T12:03:26;17;15;13
44871;PMS7003;30602;51.060;17.226;2023-06-22T12:06:47;17;17;15
44871;PMS7003;30602;51.060;17.226;2023-06-22T12:10:51;17;17;14
44871;PMS7003;30602;51.060;17.226;2023-06-22T12:14:39;18;17;14
44871;PMS7003;30602;51.060;17.226;2023-06-22T12:18:44;17;17;14
44871;PMS7003;30602;51.060;17.226;2023-06-22T12:23:07;16;14;12
44871;PMS7003;30602;51.060;17.226;2023-06-22T12:26:33;23;18;15
44871;PMS7003;30602;51.060;17.226;2023-06-22T12:29:59;18;18;14
44871;PMS7003;30602;51.060;17.226;2023-06-22T12:34:04;15;15;13
44871;PMS7003;30602;51.060;17.226;2023-06-22T12:37:48;16;14;12
44871;PMS7003;30602;51.060;17.226;2023-06-22T12:41:30;15;15;13
44871;PMS7003;30602;51.060;17.226;2023-06-22T12:45:11;15;14;12
44871;PMS7003;30602;51.060;17.226;2023-06-22T12:48:59;14;14;12
44871;PMS7003;30602;51.060;17.226;2023-06-22T12:53:13;17;15;13
44871;PMS7003;30602;51.060;17.226;2023-06-22T12:56:42;16;15;13
44871;PMS7003;30602;51.060;17.226;2023-06-22T13:00:07;16;15;13
44871;PMS7003;30602;51.060;17.226;2023-06-22T13:03:41;15;14;12
44871;PMS7003;30602;51.060;17.226;2023-06-22T13:07:26;15;14;13
44871;PMS7003;30602;51.060;17.226;2023-06-22T13:11:08;16;16;12
44871;PMS7003;30602;51.060;17.226;2023-06-22T13:15:17;14;13;11
44871;PMS7003;30602;51.060;17.226;2023-06-22T13:18:38;15;15;13
44871;PMS7003;30602;51.060;17.226;2023-06-22T13:25:52;12;11;10
44871;PMS7003;30602;51.060;17.226;2023-06-22T13:29:58;13;11;10
44871;PMS7003;30602;51.060;17.226;2023-06-22T13:34:24;13;13;11
44871;PMS7003;30602;51.060;17.226;2023-06-22T13:37:59;13;12;11
44871;PMS7003;30602;51.060;17.226;2023-06-22T13:45:45;14;11;10
44871;PMS7003;30602;51.060;17.226;2023-06-22T13:49:33;14;14;13
44871;PMS7003;30602;51.060;17.226;2023-06-22T13:53:45;15;12;10
44871;PMS7003;30602;51.060;17.226;2023-06-22T13:57:18;15;12;10
44871;PMS7003;30602;51.060;17.226;2023-06-22T14:01:13;16;16;12
44871;PMS7003;30602;51.060;17.226;2023-06-22T14:04:34;14;14;11
44871;PMS7003;30602;51.060;17.226;2023-06-22T14:12:15;13;13;10
44871;PMS7003;30602;51.060;17.226;2023-06-22T14:15:43;11;11;9
44871;PMS7003;30602;51.060;17.226;2023-06-22T14:19:12;13;13;11
44871;PMS7003;30602;51.060;17.226;2023-06-22T14:23:07;14;13;11
44871;PMS7003;30602;51.060;17.226;2023-06-22T14:26:31;16;15;13
44871;PMS7003;30602;51.060;17.226;2023-06-22T14:31:14;16;16;14
44871;PMS7003;30602;51.060;17.226;2023-06-22T14:34:38;14;14;12
44871;PMS7003;30602;51.060;17.226;2023-06-22T14:38:22;14;14;12
44871;PMS7003;30602;51.060;17.226;2023-06-22T14:42:16;14;14;13
44871;PMS7003;30602;51.060;17.226;2023-06-22T14:45:58;13;13;11
44871;PMS7003;30602;51.060;17.226;2023-06-22T14:49:21;16;15;13
44871;PMS7003;30602;51.060;17.226;2023-06-22T14:52:53;16;16;14
44871;PMS7003;30602;51.060;17.226;2023-06-22T14:56:35;13;13;11
44871;PMS7003;30602;51.060;17.226;2023-06-22T15:00:09;14;11;10
44871;PMS7003;30602;51.060;17.226;2023-06-22T15:03:34;15;14;12
44871;PMS7003;30602;51.060;17.226;2023-06-22T15:07:20;14;13;10
44871;PMS7003;30602;51.060;17.226;2023-06-22T15:11:13;15;13;12
44871;PMS7003;30602;51.060;17.226;2023-06-22T15:14:35;13;12;10
44871;PMS7003;30602;51.060;17.226;2023-06-22T15:17:57;13;13;11
44871;PMS7003;30602;51.060;17.226;2023-06-22T15:21:17;13;12;10
44871;PMS7003;30602;51.060;17.226;2023-06-22T15:24:40;15;14;12
44871;PMS7003;30602;51.060;17.226;2023-06-22T15:28:34;13;12;11
44871;PMS7003;30602;51.060;17.226;2023-06-22T15:32:19;14;14;12
44871;PMS7003;30602;51.060;17.226;2023-06-22T15:35:42;14;13;11
44871;PMS7003;30602;51.060;17.226;2023-06-22T15:39:17;14;12;10
44871;PMS7003;30602;51.060;17.226;2023-06-22T15:43:19;17;15;13
44871;PMS7003;30602;51.060;17.226;2023-06-22T15:46:47;13;13;11
44871;PMS7003;30602;51.060;17.226;2023-06-22T15:50:43;15;14;12
44871;PMS7003;30602;51.060;17.226;2023-06-22T15:54:33;16;13;12
44871;PMS7003;30602;51.060;17.226;2023-06-22T15:57:58;12;12;10
44871;PMS7003;30602;51.060;17.226;2023-06-22T16:01:46;12;12;11
44871;PMS7003;30602;51.060;17.226;2023-06-22T16:05:19;13;13;10
44871;PMS7003;30602;51.060;17.226;2023-06-22T16:09:05;13;13;11
44871;PMS7003;30602;51.060;17.226;2023-06-22T16:13:10;14;13;12
44871;PMS7003;30602;51.060;17.226;2023-06-22T16:16:49;14;13;11
44871;PMS7003;30602;51.060;17.226;2023-06-22T16:20:33;13;12;10
44871;PMS7003;30602;51.060;17.226;2023-06-22T16:24:05;14;13;11
44871;PMS7003;30602;51.060;17.226;2023-06-22T16:27:49;13;12;11
44871;PMS7003;30602;51.060;17.226;2023-06-22T16:31:54;14;13;12
44871;PMS7003;30602;51.060;17.226;2023-06-22T16:35:17;15;12;11
44871;PMS7003;30602;51.060;17.226;2023-06-22T16:39:10;12;12;11
44871;PMS7003;30602;51.060;17.226;2023-06-22T16:43:01;13;11;10
44871;PMS7003;30602;51.060;17.226;2023-06-22T16:46:26;13;13;10
44871;PMS7003;30602;51.060;17.226;2023-06-22T16:50:09;13;13;11
44871;PMS7003;30602;51.060;17.226;2023-06-22T16:57:37;13;13;12
44871;PMS7003;30602;51.060;17.226;2023-06-22T17:01:10;14;13;11
44871;PMS7003;30602;51.060;17.226;2023-06-22T17:04:46;13;12;10
44871;PMS7003;30602;51.060;17.226;2023-06-22T17:12:37;14;13;11
44871;PMS7003;30602;51.060;17.226;2023-06-22T17:16:26;13;13;11
44871;PMS7003;30602;51.060;17.226;2023-06-22T17:19:54;14;12;10
44871;PMS7003;30602;51.060;17.226;2023-06-22T17:23:18;14;13;11
44871;PMS7003;30602;51.060;17.226;2023-06-22T17:31:46;16;13;11
44871;PMS7003;30602;51.060;17.226;2023-06-22T17:35:09;15;14;12
44871;PMS7003;30602;51.060;17.226;2023-06-22T17:38:51;15;14;13
44871;PMS7003;30602;51.060;17.226;2023-06-22T17:42:38;13;13;11
44871;PMS7003;30602;51.060;17.226;2023-06-22T17:46:22;15;15;13
44871;PMS7003;30602;51.060;17.226;2023-06-22T17:50:23;14;14;12
44871;PMS7003;30602;51.060;17.226;2023-06-22T17:54:08;18;15;12
44871;PMS7003;30602;51.060;17.226;2023-06-22T17:58:01;16;15;12
44871;PMS7003;30602;51.060;17.226;2023-06-22T18:01:52;14;14;12
44871;PMS7003;30602;51.060;17.226;2023-06-22T18:05:15;16;16;14
44871;PMS7003;30602;51.060;17.226;2023-06-22T18:08:39;19;17;14
44871;PMS7003;30602;51.060;17.226;2023-06-22T18:12:03;17;16;14
44871;PMS7003;30602;51.060;17.226;2023-06-22T18:15:32;18;17;14
44871;PMS7003;30602;51.060;17.226;2023-06-22T18:19:45;17;16;14
44871;PMS7003;30602;51.060;17.226;2023-06-22T18:23:37;20;18;15
44871;PMS7003;30602;51.060;17.226;2023-06-22T18:27:21;19;17;15
44871;PMS7003;30602;51.060;17.226;2023-06-22T18:31:38;16;14;12
44871;PMS7003;30602;51.060;17.226;2023-06-22T18:35:25;16;16;14
44871;PMS7003;30602;51.060;17.226;2023-06-22T18:39:09;19;18;14
44871;PMS7003;30602;51.060;17.226;2023-06-22T18:43:39;16;16;13
44871;PMS7003;30602;51.060;17.226;2023-06-22T18:47:54;16;16;13
44871;PMS7003;30602;51.060;17.226;2023-06-22T19:03:57;17;15;13
44871;PMS7003;30602;51.060;17.226;2023-06-22T19:11:33;12;11;10
44871;PMS7003;30602;51.060;17.226;2023-06-22T19:18:55;13;12;11
44871;PMS7003;30602;51.060;17.226;2023-06-22T19:22:17;14;12;11
44871;PMS7003;30602;51.060;17.226;2023-06-22T19:25:59;10;10;8
44871;PMS7003;30602;51.060;17.226;2023-06-22T19:29:52;12;12;10
44871;PMS7003;30602;51.060;17.226;2023-06-22T19:34:00;12;10;9
44871;PMS7003;30602;51.060;17.226;2023-06-22T19:37:48;12;12;9
44871;PMS7003;30602;51.060;17.226;2023-06-22T19:41:41;11;10;9
44871;PMS7003;30602;51.060;17.226;2023-06-22T19:45:24;12;11;9
44871;PMS7003;30602;51.060;17.226;2023-06-22T19:48:46;9;7;6
44871;PMS7003;30602;51.060;17.226;2023-06-22T19:52:54;13;12;10
44871;PMS7003;30602;51.060;17.226;2023-06-22T19:57:02;13;11;11
44871;PMS7003;30602;51.060;17.226;2023-06-22T20:01:39;11;11;10
44871;PMS7003;30602;51.060;17.226;2023-06-22T20:05:43;12;11;10
44871;PMS7003;30602;51.060;17.226;2023-06-22T20:09:27;11;11;9
44871;PMS7003;30602;51.060;17.226;2023-06-22T20:17:14;10;10;8
44871;PMS7003;30602;51.060;17.226;2023-06-22T20:20:57;10;9;8
44871;PMS7003;30602;51.060;17.226;2023-06-22T20:24:19;12;9;7
44871;PMS7003;30602;51.060;17.226;2023-06-22T20:28:25;10;10;8
44871;PMS7003;30602;51.060;17.226;2023-06-22T20:32:14;12;11;9
44871;PMS7003;30602;51.060;17.226;2023-06-22T20:36:12;11;11;9
44871;PMS7003;30602;51.060;17.226;2023-06-22T20:39:39;11;11;9
44871;PMS7003;30602;51.060;17.226;2023-06-22T20:43:03;8;8;6
44871;PMS7003;30602;51.060;17.226;2023-06-22T20:50:48;11;10;8
44871;PMS7003;30602;51.060;17.226;2023-06-22T20:55:02;11;10;9
44871;PMS7003;30602;51.060;17.226;2023-06-22T20:58:47;11;9;8
44871;PMS7003;30602;51.060;17.226;2023-06-22T21:02:40;10;10;9
44871;PMS7003;30602;51.060;17.226;2023-06-22T21:10:18;12;10;9
44871;PMS7003;30602;51.060;17.226;2023-06-22T21:14:25;11;9;8
44871;PMS7003;30602;51.060;17.226;2023-06-22T21:17:48;10;8;7
44871;PMS7003;30602;51.060;17.226;2023-06-22T21:21:29;10;10;8
44871;PMS7003;30602;51.060;17.226;2023-06-22T21:25:10;11;10;8
44871;PMS7003;30602;51.060;17.226;2023-06-22T21:29:09;12;9;8
44871;PMS7003;30602;51.060;17.226;2023-06-22T21:37:13;9;9;8
44871;PMS7003;30602;51.060;17.226;2023-06-22T21:40:36;11;9;8
44871;PMS7003;30602;51.060;17.226;2023-06-22T21:44:19;9;9;8
44871;PMS7003;30602;51.060;17.226;2023-06-22T21:47:59;9;9;8
44871;PMS7003;30602;51.060;17.226;2023-06-22T21:52:14;10;9;8
44871;PMS7003;30602;51.060;17.226;2023-06-22T21:55:42;10;10;8
44871;PMS7003;30602;51.060;17.226;2023-06-22T21:59:25;13;11;10
44871;PMS7003;30602;51.060;17.226;2023-06-22T22:03:01;8;8;7
44871;PMS7003;30602;51.060;17.226;2023-06-22T22:07:04;11;8;7
44871;PMS7003;30602;51.060;17.226;2023-06-22T22:10:29;9;9;8
44871;PMS7003;30602;51.060;17.226;2023-06-22T22:13:51;10;9;8
44871;PMS7003;30602;51.060;17.226;2023-06-22T22:17:33;9;9;7
44871;PMS7003;30602;51.060;17.226;2023-06-22T22:21:52;9;9;8
44871;PMS7003;30602;51.060;17.226;2023-06-22T22:25:39;9;8;7
44871;PMS7003;30602;51.060;17.226;2023-06-22T22:29:54;10;9;8
44871;PMS7003;30602;51.060;17.226;2023-06-22T22:33:19;8;8;7
44871;PMS7003;30602;51.060;17.226;2023-06-22T22:37:03;10;8;7
44871;PMS7003;30602;51.060;17.226;2023-06-22T22:40:55;9;9;7
44871;PMS7003;30602;51.060;17.226;2023-06-22T22:44:47;7;7;6
44871;PMS7003;30602;51.060;17.226;2023-06-22T22:48:08;10;8;7
44871;PMS7003;30602;51.060;17.226;2023-06-22T22:52:54;9;9;8
44871;PMS7003;30602;51.060;17.226;2023-06-22T22:57:07;10;9;8
44871;PMS7003;30602;51.060;17.226;2023-06-22T23:00:48;12;10;8
44871;PMS7003;30602;51.060;17.226;2023-06-22T23:04:42;8;8;7
44871;PMS7003;30602;51.060;17.226;2023-06-22T23:08:34;8;7;7
44871;PMS7003;30602;51.060;17.226;2023-06-22T23:12:25;9;9;7
44871;PMS7003;30602;51.060;17.226;2023-06-22T23:16:10;9;9;7
44871;PMS7003;30602;51.060;17.226;2023-06-22T23:19:53;10;9;8
44871;PMS7003;30602;51.060;17.226;2023-06-22T23:27:08;8;8;7
44871;PMS7003;30602;51.060;17.226;2023-06-22T23:31:06;9;8;7
44871;PMS7003;30602;51.060;17.226;2023-06-22T23:34:33;8;8;7
44871;PMS7003;30602;51.060;17.226;2023-06-22T23:37:57;9;9;8
44871;PMS7003;30602;51.060;17.226;2023-06-22T23:41:17;9;8;7
44871;PMS7003;30602;51.060;17.226;2023-06-22T23:44:48;10;9;8
44871;PMS7003;30602;51.060;17.226;2023-06-22T23:48:23;13;11;9
44871;PMS7003;30602;51.060;17.226;2023-06-22T23:52:30;10;9;8
44871;PMS7003;30602;51.060;17.226;2023-06-22T23:56:25;9;9;8
